Time;durP1;ratioP1;P1;durP2;ratioP2;P2;SDS_P1;SDS_P2;PMS_P1;PMS_P2;Temp;Humidity;BMP_temperature;BMP_pressure;BME280_temperature;BME280_humidity;BME280_pressure;Samples;Min_cycle;Max_cycle;Signal;HPM_P1;HPM_P2
2021/12/26 00:00:58;;;;;;;23.17;7.53;;;;;;;16.13;12.38;97884.13;5015232;28;20026;-73
2021/12/26 00:03:25;;;;;;;;;;;;;;;16.21;12.27;97884.97;5014092;28;20339;-73
2021/12/26 00:05:53;;;;;;;15.02;5.57;;;;;;;16.75;12.24;97879.38;5014371;28;19925;-73
2021/12/26 00:08:20;;;;;;;16.83;7.18;;;;;;;16.57;11.92;97886.78;5014396;28;20041;-73
2021/12/26 00:10:48;;;;;;;20.35;5.93;;;;;;;16.13;12.13;97886.91;5014609;28;20112;-73
2021/12/26 00:13:15;;;;;;;21.92;7.03;;;;;;;16.03;12.02;97886.84;5008988;28;20065;-73
2021/12/26 00:15:42;;;;;;;21.05;8.05;;;;;;;15.59;12.13;97890.44;5009401;28;20115;-73
2021/12/26 00:18:10;;;;;;;25.27;7.60;;;;;;;15.65;12.24;97888.91;5014716;28;20046;-73
2021/12/26 00:20:37;;;;;;;18.33;6.53;;;;;;;16.05;12.12;97885.28;5014771;28;20030;-73
2021/12/26 00:23:04;;;;;;;20.42;7.65;;;;;;;16.45;12.53;97887.13;5014212;28;20057;-73
2021/12/26 00:25:30;;;;;;;17.02;6.82;;;;;;;16.39;12.09;97880.34;5014382;28;20030;-73
2021/12/26 00:27:56;;;;;;;20.38;6.75;;;;;;;16.02;12.39;97880.50;5013296;28;20030;-74
2021/12/26 00:30:23;;;;;;;15.00;5.45;;;;;;;16.13;12.35;97883.31;5014429;28;20068;-74
2021/12/26 00:32:49;;;;;;;12.40;5.05;;;;;;;16.53;12.30;97878.47;5014306;28;20036;-73
2021/12/26 00:35:17;;;;;;;19.98;6.00;;;;;;;16.84;11.86;97881.78;5014424;28;20049;-73
2021/12/26 00:37:45;;;;;;;23.90;6.70;;;;;;;16.43;12.16;97883.91;5014121;28;20038;-73
2021/12/26 00:40:13;;;;;;;23.92;6.80;;;;;;;15.86;12.67;97888.28;5009196;28;20065;-74
2021/12/26 00:42:40;;;;;;;24.17;8.05;;;;;;;15.58;12.92;97888.06;5009396;28;20060;-74
2021/12/26 00:45:07;;;;;;;16.63;5.68;;;;;;;15.95;12.81;97887.94;5014123;28;20109;-74
2021/12/26 00:47:34;;;;;;;16.77;5.57;;;;;;;16.14;12.39;97888.50;4997243;28;20030;-73
2021/12/26 00:50:01;;;;;;;20.13;5.63;;;;;;;16.22;12.10;97883.81;4994306;28;20026;-74
2021/12/26 00:52:27;;;;;;;20.45;6.22;;;;;;;16.56;11.92;97879.66;4994422;28;20474;-73
2021/12/26 00:54:54;;;;;;;17.08;6.25;;;;;;;17.03;11.31;97879.47;4994446;28;20102;-73
2021/12/26 00:57:20;;;;;;;13.05;5.40;;;;;;;17.25;11.19;97883.06;4994252;28;20117;-74
2021/12/26 00:59:46;;;;;;;19.55;5.90;;;;;;;17.09;11.38;97888.19;5009814;28;20038;-74
2021/12/26 01:02:12;;;;;;;23.13;7.93;;;;;;;16.50;11.43;97887.53;5013940;28;20030;-74
2021/12/26 01:04:39;;;;;;;22.83;8.05;;;;;;;14.91;12.82;97888.09;5013733;28;20046;-74
2021/12/26 01:07:14;;;;;;;24.25;7.20;;;;;;;14.41;13.77;97888.66;5013439;28;20046;-74
2021/12/26 01:09:42;;;;;;;22.13;6.32;;;;;;;15.14;13.13;97891.56;5002755;28;20050;-74
2021/12/26 01:12:13;;;;;;;20.23;7.38;;;;;;;15.68;12.87;97885.38;5005548;28;20041;-73
2021/12/26 01:14:47;;;;;;;22.80;7.38;;;;;;;15.13;12.68;97887.19;5001410;28;20026;-74
2021/12/26 01:17:17;;;;;;;23.95;8.27;;;;;;;14.80;13.17;97878.09;5013997;28;20176;-74
2021/12/26 01:19:47;;;;;;;25.52;8.43;;;;;;;14.93;13.34;97883.03;5011593;28;20393;-73
2021/12/26 01:22:15;;;;;;;32.15;9.32;;;;;;;15.22;13.28;97882.16;5012906;28;20029;-73
2021/12/26 01:24:43;;;;;;;19.30;8.35;;;;;;;15.36;12.95;97875.94;5013590;28;20120;-73
2021/12/26 01:27:09;;;;;;;25.63;8.82;;;;;;;15.72;12.94;97863.25;5013812;28;20433;-74
2021/12/26 01:29:36;;;;;;;23.17;8.30;;;;;;;16.03;12.62;97867.47;5013563;28;20100;-74
2021/12/26 01:32:04;;;;;;;33.45;8.98;;;;;;;16.44;12.58;97864.16;5012882;28;20181;-73
2021/12/26 01:34:30;;;;;;;26.55;9.20;;;;;;;16.50;12.10;97865.34;5010151;28;20084;-74
2021/12/26 01:36:56;;;;;;;30.27;11.25;;;;;;;16.22;12.11;97864.41;5013401;28;20489;-74
2021/12/26 01:39:24;;;;;;;29.55;10.77;;;;;;;15.86;12.74;97861.41;5016257;28;20393;-74
2021/12/26 01:41:50;;;;;;;36.15;13.77;;;;;;;15.57;13.24;97870.66;5004927;28;20026;-74
2021/12/26 01:44:17;;;;;;;22.40;9.48;;;;;;;15.80;12.60;97865.69;5019960;28;20100;-73
2021/12/26 01:46:45;;;;;;;33.35;11.00;;;;;;;16.14;12.34;97865.53;5019832;28;20026;-73
2021/12/26 01:49:15;;;;;;;33.95;12.27;;;;;;;16.05;12.36;97857.59;5019130;28;20056;-74
2021/12/26 01:51:43;;;;;;;37.83;11.10;;;;;;;16.63;11.91;97857.53;5017524;28;20046;-73
2021/12/26 01:54:12;;;;;;;33.95;11.02;;;;;;;16.99;11.56;97864.00;5019516;28;20113;-74
2021/12/26 01:56:41;;;;;;;32.78;10.27;;;;;;;17.11;11.28;97863.63;5020116;28;20430;-73
2021/12/26 01:59:10;;;;;;;67.15;26.70;;;;;;;17.05;11.10;97862.44;5019822;28;20029;-73
2021/12/26 02:01:36;;;;;;;56.83;22.58;;;;;;;17.23;10.83;97858.50;5019774;28;20038;-73
2021/12/26 02:04:03;;;;;;;27.77;11.35;;;;;;;17.29;10.77;97856.94;5018463;28;20493;-73
2021/12/26 02:06:29;;;;;;;33.90;10.60;;;;;;;17.38;10.68;97852.97;5019458;28;20050;-74
2021/12/26 02:08:56;;;;;;;23.20;9.38;;;;;;;17.51;11.18;97857.78;5018102;28;20409;-74
2021/12/26 02:11:22;;;;;;;29.77;10.93;;;;;;;17.57;10.61;97864.53;5010189;28;20088;-74
2021/12/26 02:13:48;;;;;;;26.40;8.95;;;;;;;16.91;11.21;97862.38;5014071;28;20030;-73
2021/12/26 02:16:14;;;;;;;26.77;9.18;;;;;;;16.87;10.97;97862.38;5019594;28;20066;-73
2021/12/26 02:18:41;;;;;;;29.02;10.73;;;;;;;16.78;11.03;97861.94;5019345;28;20034;-73
2021/12/26 02:28:43;;;;;;;26.00;8.93;;;;;;;17.49;10.76;97868.47;5019876;28;20129;-73
2021/12/26 02:31:10;;;;;;;32.50;12.05;;;;;;;17.23;10.73;97858.50;5019401;28;20513;-73
2021/12/26 02:33:37;;;;;;;32.67;10.43;;;;;;;16.09;11.39;97861.16;5019196;28;20478;-73
2021/12/26 02:36:04;;;;;;;23.17;10.13;;;;;;;15.61;12.11;97862.41;5019908;28;20041;-73
2021/12/26 02:38:32;;;;;;;24.90;9.27;;;;;;;15.58;11.81;97855.66;5019518;28;20440;-74
2021/12/26 02:40:58;;;;;;;29.60;11.18;;;;;;;15.54;12.17;97854.03;5018853;28;20029;-73
2021/12/26 02:43:27;;;;;;;24.85;10.13;;;;;;;15.78;12.25;97845.91;5013921;28;20425;-74
2021/12/26 02:45:54;;;;;;;26.92;10.45;;;;;;;16.25;11.92;97852.53;4998825;28;20183;-73
2021/12/26 02:48:20;;;;;;;21.77;9.52;;;;;;;16.46;11.55;97849.88;4999785;28;20039;-74
2021/12/26 02:50:52;;;;;;;24.73;10.60;;;;;;;16.83;11.40;97849.66;4996802;28;20022;-74
2021/12/26 02:53:20;;;;;;;27.75;10.20;;;;;;;16.91;11.88;97846.56;5011211;28;20118;-74
2021/12/26 02:55:50;;;;;;;24.02;8.57;;;;;;;17.17;11.31;97851.78;4996649;28;20121;-73
2021/12/26 02:58:17;;;;;;;28.60;10.73;;;;;;;16.83;11.47;97849.66;5002478;28;20034;-73
2021/12/26 03:00:51;;;;;;;23.60;10.20;;;;;;;16.89;11.06;97851.69;5015686;28;20050;-74
2021/12/26 03:03:17;;;;;;;33.70;11.15;;;;;;;16.81;11.23;97863.94;5016083;28;20057;-74
2021/12/26 03:05:45;;;;;;;31.15;10.13;;;;;;;16.53;11.21;97863.81;5015735;28;20064;-74
2021/12/26 03:08:16;;;;;;;26.17;11.25;;;;;;;16.03;11.49;97859.94;5011187;28;20398;-73
2021/12/26 03:10:42;;;;;;;;;;;;;;;15.12;12.33;97871.75;4997390;28;20034;-73
2021/12/26 03:13:11;;;;;;;29.88;12.00;;;;;;;14.65;12.87;97868.06;4996584;28;19921;-74
2021/12/26 03:15:38;;;;;;;34.35;12.82;;;;;;;14.59;12.72;97867.59;5010492;28;20049;-74
2021/12/26 03:18:06;;;;;;;33.60;12.57;;;;;;;14.85;12.52;97859.22;4996270;28;20029;-73
2021/12/26 03:20:41;;;;;;;34.53;14.05;;;;;;;14.85;12.72;97862.00;4996042;28;20073;-73
2021/12/26 03:23:08;;;;;;;31.92;12.40;;;;;;;15.10;12.60;97865.00;4996182;28;20027;-73
2021/12/26 03:25:35;;;;;;;30.55;11.90;;;;;;;15.07;12.74;97868.56;4996096;28;20506;-74
2021/12/26 03:28:04;;;;;;;30.55;12.07;;;;;;;15.15;12.28;97871.00;4995947;28;20019;-74
2021/12/26 03:30:32;;;;;;;30.17;12.43;;;;;;;14.79;12.86;97871.00;5011059;28;20395;-73
2021/12/26 03:33:00;;;;;;;28.90;11.18;;;;;;;14.99;12.84;97877.94;5013204;28;20505;-73
2021/12/26 03:35:29;;;;;;;33.35;12.38;;;;;;;15.06;12.36;97875.25;5015309;28;20038;-73
2021/12/26 03:37:57;;;;;;;34.88;13.90;;;;;;;14.96;12.57;97879.47;5015648;28;20484;-73
2021/12/26 03:40:23;;;;;;;36.03;13.80;;;;;;;14.14;13.53;97876.81;5015394;28;20030;-73
2021/12/26 03:42:51;;;;;;;39.22;15.85;;;;;;;13.92;14.07;97880.44;5014739;28;20502;-73
2021/12/26 03:45:19;;;;;;;44.17;16.40;;;;;;;13.87;13.67;97872.47;5015222;28;20030;-73
2021/12/26 03:47:50;;;;;;;47.85;14.38;;;;;;;14.49;13.39;97876.56;5009933;28;20034;-73
2021/12/26 03:50:18;;;;;;;35.55;13.32;;;;;;;15.07;12.50;97887.91;5014814;28;20033;-73
2021/12/26 03:52:45;;;;;;;30.88;12.05;;;;;;;15.35;12.30;97885.44;5014026;28;20034;-73
2021/12/26 03:55:12;;;;;;;30.63;11.23;;;;;;;15.72;12.10;97885.41;5013747;28;20449;-73
2021/12/26 03:57:38;;;;;;;33.63;12.63;;;;;;;16.21;11.62;97882.22;5014824;28;20061;-73
2021/12/26 04:00:06;;;;;;;34.70;12.88;;;;;;;16.44;11.30;97878.00;5014988;28;20393;-73
2021/12/26 04:02:33;;;;;;;29.98;11.60;;;;;;;16.79;10.73;97882.13;5004596;28;20402;-73
2021/12/26 04:04:59;;;;;;;30.10;11.57;;;;;;;16.77;10.97;97890.84;4996680;28;20085;-74
2021/12/26 04:07:25;;;;;;;29.73;10.80;;;;;;;16.66;11.11;97886.44;5010686;28;20053;-73
2021/12/26 04:09:51;;;;;;;25.30;10.73;;;;;;;16.60;11.05;97894.34;4995238;28;20030;-73
2021/12/26 04:12:17;;;;;;;32.55;11.15;;;;;;;16.58;11.10;97888.38;4994958;28;20092;-73
2021/12/26 04:14:43;;;;;;;29.50;12.38;;;;;;;16.61;11.19;97893.16;4995047;28;20114;-73
2021/12/26 04:17:09;;;;;;;34.97;12.27;;;;;;;16.74;11.09;97902.72;4995404;28;20037;-73
2021/12/26 04:19:35;;;;;;;30.00;12.40;;;;;;;16.37;11.24;97904.88;4995910;28;20122;-73
2021/12/26 04:22:03;;;;;;;29.20;11.48;;;;;;;16.25;11.05;97903.22;5014043;28;20041;-73
2021/12/26 04:24:30;;;;;;;37.25;12.88;;;;;;;16.00;11.14;97896.72;5014620;28;20435;-73
2021/12/26 04:26:56;;;;;;;29.40;10.73;;;;;;;15.57;11.65;97914.91;5014272;28;20085;-73
2021/12/26 04:29:23;;;;;;;33.28;12.25;;;;;;;15.96;11.24;97918.03;5014510;28;20034;-73
2021/12/26 04:31:49;;;;;;;31.65;11.63;;;;;;;16.36;10.65;97915.16;5014498;28;20030;-73
2021/12/26 04:34:15;;;;;;;33.78;12.52;;;;;;;16.18;11.03;97914.25;5014203;28;20084;-74
2021/12/26 04:36:41;;;;;;;32.00;13.15;;;;;;;15.36;11.74;97922.16;5014304;28;20042;-73
2021/12/26 04:39:07;;;;;;;37.47;13.45;;;;;;;14.63;12.29;97922.91;5014003;28;20030;-73
2021/12/26 04:41:33;;;;;;;40.70;14.40;;;;;;;14.11;12.64;97923.69;5008814;28;20474;-73
2021/12/26 04:43:59;;;;;;;36.13;14.10;;;;;;;12.68;13.39;97928.94;4995388;28;20418;-73
2021/12/26 04:46:25;;;;;;;31.15;12.90;;;;;;;11.54;14.75;97932.94;4997268;28;20038;-73
2021/12/26 04:48:51;;;;;;;37.40;13.40;;;;;;;12.41;14.32;97928.78;5014180;28;20457;-73
2021/12/26 04:51:17;;;;;;;30.55;13.25;;;;;;;13.34;13.41;97932.25;5014025;28;20036;-73
2021/12/26 04:53:44;;;;;;;36.95;13.43;;;;;;;13.74;12.97;97931.78;5014086;28;20069;-73
2021/12/26 04:56:10;;;;;;;38.20;14.82;;;;;;;13.80;13.05;97930.31;5010149;28;20042;-73
2021/12/26 04:58:38;;;;;;;35.47;13.60;;;;;;;13.72;13.24;97934.91;5013807;28;20053;-73
2021/12/26 05:01:05;;;;;;;36.80;13.70;;;;;;;13.66;13.00;97941.09;5013961;28;20037;-73
2021/12/26 05:03:31;;;;;;;38.35;14.40;;;;;;;13.69;13.15;97943.13;5014093;28;20030;-73
2021/12/26 05:05:57;;;;;;;35.58;15.02;;;;;;;14.03;12.96;97939.34;5011784;28;20410;-73
2021/12/26 05:08:23;;;;;;;35.42;14.73;;;;;;;14.50;12.62;97939.72;4994267;28;20115;-73
2021/12/26 05:10:49;;;;;;;42.53;14.63;;;;;;;13.23;13.04;97949.78;4993882;28;20034;-73
2021/12/26 05:13:15;;;;;;;30.65;13.15;;;;;;;11.85;14.58;97943.16;4997083;28;20113;-73
2021/12/26 05:15:43;;;;;;;36.20;14.02;;;;;;;11.30;14.83;97955.88;5013617;28;20046;-73
2021/12/26 05:18:09;;;;;;;47.75;15.38;;;;;;;11.44;15.21;97947.19;5013980;28;20490;-73
2021/12/26 05:20:35;;;;;;;35.58;14.70;;;;;;;12.39;14.63;97938.56;5013670;28;20033;-73
2021/12/26 05:23:01;;;;;;;40.50;14.50;;;;;;;13.33;13.67;97935.38;5003203;28;20045;-73
2021/12/26 05:25:28;;;;;;;39.80;14.07;;;;;;;13.93;13.16;97942.75;5012824;28;20433;-73
2021/12/26 05:27:55;;;;;;;36.92;15.23;;;;;;;14.10;12.81;97942.22;5013522;28;20113;-73
2021/12/26 05:30:25;;;;;;;40.15;15.00;;;;;;;13.86;13.24;97935.13;5013437;28;20034;-73
2021/12/26 05:32:51;;;;;;;42.47;15.63;;;;;;;13.94;12.99;97930.53;5013397;28;20122;-73
2021/12/26 05:35:18;;;;;;;43.85;15.65;;;;;;;14.11;12.86;97930.03;5013531;28;20406;-73
2021/12/26 05:37:46;;;;;;;35.17;14.20;;;;;;;13.89;12.92;97930.84;5013415;28;20490;-73
2021/12/26 05:40:13;;;;;;;36.55;15.02;;;;;;;13.92;12.91;97932.88;5005896;28;20060;-73
2021/12/26 05:42:39;;;;;;;41.25;16.95;;;;;;;13.67;12.95;97934.44;5013567;28;20026;-73
2021/12/26 05:45:07;;;;;;;39.47;15.70;;;;;;;13.42;13.05;97933.97;5010336;28;20056;-73
2021/12/26 05:47:34;;;;;;;34.00;13.60;;;;;;;14.03;12.88;97931.06;5009462;28;20030;-73
2021/12/26 05:50:01;;;;;;;44.92;14.77;;;;;;;14.47;12.39;97925.84;5007411;28;20034;-73
2021/12/26 05:52:27;;;;;;;45.25;17.90;;;;;;;14.18;12.33;97923.81;5013319;28;20022;-73
2021/12/26 05:54:54;;;;;;;41.75;17.02;;;;;;;13.66;12.96;97932.81;5013052;28;20048;-73
2021/12/26 05:57:20;;;;;;;44.15;16.02;;;;;;;13.37;13.19;97937.03;5013202;28;20080;-73
2021/12/26 05:59:46;;;;;;;42.22;15.63;;;;;;;12.37;13.90;97935.34;5013272;28;20056;-73
2021/12/26 06:02:12;;;;;;;46.75;18.45;;;;;;;12.39;14.00;97935.81;5010232;28;20513;-73
2021/12/26 06:04:39;;;;;;;48.25;17.25;;;;;;;12.46;13.63;97933.22;5010364;28;20099;-73
2021/12/26 06:07:06;;;;;;;41.03;15.63;;;;;;;13.15;13.43;97926.78;5006167;28;20034;-73
2021/12/26 06:09:32;;;;;;;41.70;13.55;;;;;;;13.74;12.71;97926.28;5011603;28;20033;-73
2021/12/26 06:11:58;;;;;;;43.53;16.60;;;;;;;13.61;13.04;97933.94;5013987;28;20370;-73
2021/12/26 06:14:25;;;;;;;39.17;15.15;;;;;;;13.70;12.72;97937.22;5013022;28;20058;-73
2021/12/26 06:16:51;;;;;;;46.13;15.88;;;;;;;13.62;12.79;97934.72;5012699;28;20502;-73
2021/12/26 06:19:17;;;;;;;42.92;15.60;;;;;;;14.13;12.67;97933.22;4997308;28;20035;-73
2021/12/26 06:21:43;;;;;;;36.53;14.13;;;;;;;14.60;12.16;97934.69;5000393;28;20045;-73
2021/12/26 06:24:09;;;;;;;43.50;15.48;;;;;;;14.92;12.16;97939.47;5012718;28;20084;-73
2021/12/26 06:26:36;;;;;;;36.72;14.07;;;;;;;15.23;11.72;97938.25;5014906;28;20038;-73
2021/12/26 06:29:03;;;;;;;34.83;14.32;;;;;;;15.48;11.37;97930.25;5016521;28;20092;-73
2021/12/26 06:31:29;;;;;;;47.17;16.15;;;;;;;15.07;11.59;97938.47;5016863;28;20061;-73
2021/12/26 06:33:56;;;;;;;39.25;16.70;;;;;;;14.57;11.89;97938.19;5016616;28;20044;-73
2021/12/26 06:36:22;;;;;;;34.33;15.32;;;;;;;14.54;12.00;97935.03;5015271;28;20137;-73
2021/12/26 06:38:48;;;;;;;42.50;16.40;;;;;;;14.70;11.84;97934.06;5012695;28;20038;-73
2021/12/26 06:41:15;;;;;;;46.63;16.65;;;;;;;14.98;11.66;97942.72;5016119;28;20498;-73
2021/12/26 06:43:42;;;;;;;38.35;16.70;;;;;;;15.13;11.89;97945.25;5015125;28;20485;-73
2021/12/26 06:46:09;;;;;;;37.45;15.30;;;;;;;15.48;11.73;97944.06;5015860;28;20022;-73
2021/12/26 06:48:37;;;;;;;34.65;12.73;;;;;;;15.82;11.25;97951.16;5016335;28;20040;-73
2021/12/26 06:51:04;;;;;;;34.88;12.23;;;;;;;16.16;10.92;97944.28;5009044;28;20102;-73
2021/12/26 06:53:30;;;;;;;36.28;13.88;;;;;;;16.44;10.57;97938.97;4996655;28;20038;-73
2021/12/26 06:55:56;;;;;;;32.80;13.35;;;;;;;16.31;10.54;97945.97;5005305;28;20402;-73
2021/12/26 06:58:22;;;;;;;47.47;16.65;;;;;;;15.89;11.13;97954.75;5016041;28;20042;-73
2021/12/26 07:00:48;;;;;;;35.65;11.65;;;;;;;15.80;10.79;97959.81;5016379;28;20068;-73
2021/12/26 07:03:14;;;;;;;34.55;12.35;;;;;;;15.99;11.13;97957.97;5013499;28;20030;-73
2021/12/26 07:05:40;;;;;;;22.77;9.77;;;;;;;16.15;11.08;97969.63;4996356;28;20471;-73
2021/12/26 07:08:07;;;;;;;31.95;11.77;;;;;;;16.45;10.38;97962.69;4996391;28;20026;-73
2021/12/26 07:10:34;;;;;;;34.92;12.35;;;;;;;16.68;9.92;97965.25;4996331;28;20050;-73
2021/12/26 07:13:00;;;;;;;37.20;11.90;;;;;;;16.68;9.93;97959.72;5006372;28;20030;-73
2021/12/26 07:15:27;;;;;;;34.95;12.85;;;;;;;16.67;9.92;97968.41;5015630;28;20076;-73
2021/12/26 07:17:53;;;;;;;29.45;11.98;;;;;;;16.45;10.09;97970.25;5011981;28;20490;-73
2021/12/26 07:20:19;;;;;;;32.00;11.68;;;;;;;16.52;10.05;97968.31;4996613;28;20449;-73
2021/12/26 07:22:46;;;;;;;28.45;10.82;;;;;;;16.43;10.06;97975.34;5010932;28;20030;-73
2021/12/26 07:25:13;;;;;;;28.98;12.75;;;;;;;16.59;10.07;97981.44;5015102;28;20042;-73
2021/12/26 07:27:40;;;;;;;32.58;11.20;;;;;;;16.35;10.17;97982.84;5015614;28;20026;-73
2021/12/26 07:30:08;;;;;;;25.63;10.77;;;;;;;16.43;10.43;97987.22;5012652;28;20053;-73
2021/12/26 07:32:34;;;;;;;29.45;11.07;;;;;;;16.51;10.44;97983.38;5015326;28;20084;-73
2021/12/26 07:35:01;;;;;;;29.73;10.35;;;;;;;16.69;10.20;97989.00;5015560;28;20042;-73
2021/12/26 07:37:28;;;;;;;28.75;10.45;;;;;;;16.55;10.33;97986.94;5014333;28;20045;-73
2021/12/26 07:39:55;;;;;;;26.90;11.25;;;;;;;16.65;9.96;97988.22;4999166;28;20061;-73
2021/12/26 07:42:21;;;;;;;33.22;12.57;;;;;;;16.76;10.21;97975.19;4996081;28;20049;-73
2021/12/26 07:44:47;;;;;;;25.17;10.90;;;;;;;16.75;10.43;97984.72;5010763;28;20038;-73
2021/12/26 07:47:13;;;;;;;29.00;12.65;;;;;;;16.44;10.38;97997.16;5007041;28;20030;-73
2021/12/26 07:49:40;;;;;;;36.67;13.95;;;;;;;16.36;10.83;97989.19;5014889;28;20025;-73
2021/12/26 07:52:18;;;;;;;32.40;13.75;;;;;;;16.43;10.78;97994.75;5014973;28;20025;-73
2021/12/26 07:54:45;;;;;;;32.70;15.32;;;;;;;16.16;10.96;97998.88;5015409;28;20072;-73
2021/12/26 07:57:12;;;;;;;38.78;14.63;;;;;;;16.16;11.05;98004.44;5015058;28;20026;-73
2021/12/26 07:59:38;;;;;;;35.72;16.33;;;;;;;16.05;11.14;97998.81;5015002;28;20034;-73
2021/12/26 08:02:06;;;;;;;26.15;13.48;;;;;;;15.89;11.73;98001.81;5012145;28;20113;-73
2021/12/26 08:04:32;;;;;;;40.25;14.95;;;;;;;15.59;11.50;98005.88;5008818;28;20041;-73
2021/12/26 08:07:00;;;;;;;27.30;12.18;;;;;;;15.57;11.91;98011.75;5014474;28;20104;-73
2021/12/26 08:09:26;;;;;;;38.08;14.77;;;;;;;15.73;12.05;98019.81;5014808;28;20441;-73
2021/12/26 08:11:53;;;;;;;37.13;15.02;;;;;;;15.35;12.32;98020.19;5014818;28;20080;-73
2021/12/26 08:14:19;;;;;;;46.70;17.80;;;;;;;15.08;12.76;98023.00;5014763;28;20105;-73
2021/12/26 08:16:45;;;;;;;32.08;15.00;;;;;;;15.19;12.48;98023.16;5010715;28;20025;-73
2021/12/26 08:19:11;;;;;;;38.40;15.70;;;;;;;15.06;12.77;98016.25;5014232;28;20077;-73
2021/12/26 08:21:38;;;;;;;33.22;15.55;;;;;;;14.69;12.98;98018.91;5013218;28;20038;-73
2021/12/26 08:24:04;;;;;;;34.13;14.27;;;;;;;14.87;12.85;98008.09;5007309;28;20350;-73
2021/12/26 08:26:32;;;;;;;30.85;13.82;;;;;;;15.40;12.66;98006.81;5014885;28;20041;-73
2021/12/26 08:28:59;;;;;;;38.30;14.30;;;;;;;15.92;12.18;98008.56;5009460;28;20104;-73
2021/12/26 08:31:25;;;;;;;37.47;15.45;;;;;;;16.27;12.08;98008.06;4994852;28;20092;-73
2021/12/26 08:33:51;;;;;;;40.38;14.23;;;;;;;16.24;12.16;98014.41;5005746;28;20474;-73
2021/12/26 08:36:21;;;;;;;40.45;15.00;;;;;;;16.36;11.95;98009.34;5007984;28;20068;-73
2021/12/26 08:38:47;;;;;;;38.17;14.75;;;;;;;16.79;11.70;98010.47;5013907;28;20152;-73
2021/12/26 08:41:14;;;;;;;37.05;15.57;;;;;;;16.99;11.68;98011.75;5014490;28;20478;-73
2021/12/26 08:43:43;;;;;;;51.45;17.52;;;;;;;17.29;11.49;98003.97;5014225;28;20022;-73
2021/12/26 08:46:10;;;;;;;43.40;16.23;;;;;;;17.42;11.52;98014.72;5014163;28;20470;-73
2021/12/26 08:48:36;;;;;;;42.83;16.23;;;;;;;17.40;11.39;98011.56;5013213;28;20041;-73
2021/12/26 08:51:03;;;;;;;41.78;15.80;;;;;;;17.18;11.61;98002.34;5014044;28;20026;-73
2021/12/26 08:53:29;;;;;;;37.88;14.60;;;;;;;17.54;11.71;98006.09;5014013;28;20041;-73
2021/12/26 08:55:57;;;;;;;39.33;15.43;;;;;;;17.47;11.69;98004.06;5012358;28;20034;-73
2021/12/26 08:58:24;;;;;;;40.42;14.85;;;;;;;17.45;12.10;98005.63;5014112;28;20553;-73
2021/12/26 09:00:50;;;;;;;38.50;16.55;;;;;;;17.11;12.29;98000.34;5010641;28;20101;-73
2021/12/26 09:03:16;;;;;;;40.63;15.25;;;;;;;17.03;12.51;98004.28;4993016;28;20050;-73
2021/12/26 09:05:43;;;;;;;62.92;26.15;;;;;;;16.70;12.66;98003.69;4994483;28;20041;-74
2021/12/26 09:08:10;;;;;;;32.65;15.32;;;;;;;16.83;12.58;97999.38;4994840;28;20042;-73
2021/12/26 09:10:41;;;;;;;31.15;13.13;;;;;;;16.67;12.79;98002.47;4994149;28;20027;-73
2021/12/26 09:13:07;;;;;;;;;;;;;;;16.45;12.75;98007.03;5013255;28;20054;-73
2021/12/26 09:15:34;;;;;;;42.25;12.93;;;;;;;16.75;12.72;98003.31;5013877;28;19914;-73
2021/12/26 09:18:00;;;;;;;36.13;13.85;;;;;;;16.29;13.05;98002.97;5009504;28;20097;-73
2021/12/26 09:20:27;;;;;;;37.47;16.15;;;;;;;15.81;13.69;98002.94;5013704;28;20477;-73
2021/12/26 09:22:53;;;;;;;48.65;14.95;;;;;;;15.29;14.07;98002.31;5013773;28;20077;-73
2021/12/26 09:25:20;;;;;;;35.70;13.25;;;;;;;15.99;13.54;97999.53;5013865;28;20034;-73
2021/12/26 09:27:46;;;;;;;38.88;14.30;;;;;;;16.43;13.36;98000.28;5012327;28;20034;-73
2021/12/26 09:30:13;;;;;;;41.88;16.38;;;;;;;16.30;13.39;97997.03;5013022;28;20113;-73
2021/12/26 09:32:40;;;;;;;48.67;17.92;;;;;;;14.99;14.39;98000.38;5013368;28;20335;-73
2021/12/26 09:35:07;;;;;;;44.85;17.33;;;;;;;13.76;15.78;97993.72;5013361;28;20390;-74
2021/12/26 09:37:33;;;;;;;41.08;15.65;;;;;;;14.80;14.88;97988.66;5012143;28;20040;-73
2021/12/26 09:39:59;;;;;;;38.20;15.13;;;;;;;16.33;13.95;97987.97;5013337;28;20429;-73
2021/12/26 09:42:25;;;;;;;48.05;17.40;;;;;;;16.51;13.43;97979.78;5013540;28;20406;-73
2021/12/26 09:44:52;;;;;;;124.72;50.08;;;;;;;16.35;13.75;97974.53;5012036;28;20394;-74
2021/12/26 09:47:18;;;;;;;67.88;26.38;;;;;;;16.91;13.30;97976.06;5012776;28;20034;-73
2021/12/26 09:49:44;;;;;;;42.35;16.40;;;;;;;16.76;13.69;97980.75;5013697;28;20041;-73
2021/12/26 09:52:10;;;;;;;49.83;19.02;;;;;;;16.37;13.62;97983.25;5013391;28;20030;-73
2021/12/26 09:54:37;;;;;;;40.22;16.73;;;;;;;15.83;14.07;97988.69;5013556;28;20037;-73
2021/12/26 09:57:03;;;;;;;54.55;18.50;;;;;;;15.37;14.38;97990.16;5011918;28;20034;-74
2021/12/26 09:59:30;;;;;;;39.53;15.50;;;;;;;15.94;14.16;97986.06;5011552;28;20026;-73
2021/12/26 10:02:05;;;;;;;44.03;17.92;;;;;;;15.52;14.49;97976.13;4998585;28;20482;-73
2021/12/26 10:04:33;;;;;;;43.63;15.98;;;;;;;16.20;14.16;97977.53;5016952;28;20041;-74
2021/12/26 10:07:02;;;;;;;44.97;17.38;;;;;;;16.26;14.02;97979.59;5016993;28;20129;-74
2021/12/26 10:09:29;;;;;;;41.83;15.30;;;;;;;16.44;13.81;97979.72;5017144;28;20477;-73
2021/12/26 10:11:58;;;;;;;40.05;14.48;;;;;;;16.46;13.83;97969.03;5015825;28;20037;-74
2021/12/26 10:14:33;;;;;;;46.85;15.65;;;;;;;16.69;13.88;97974.34;5016778;28;20080;-74
2021/12/26 10:17:08;;;;;;;40.72;16.40;;;;;;;16.49;13.87;97976.59;5016880;28;20504;-74
2021/12/26 10:19:40;;;;;;;32.65;15.20;;;;;;;16.30;14.13;97974.06;5013536;28;20432;-73
2021/12/26 10:22:07;;;;;;;36.40;15.82;;;;;;;16.15;14.21;97981.47;5013809;28;20379;-73
2021/12/26 10:24:40;;;;;;;38.47;14.98;;;;;;;16.34;14.34;97970.16;5016341;28;20056;-73
2021/12/26 10:27:16;;;;;;;46.30;17.95;;;;;;;17.14;13.60;97969.06;5017124;28;20101;-74
2021/12/26 10:29:49;;;;;;;37.60;15.73;;;;;;;17.53;13.36;97971.19;5014921;28;20104;-74
2021/12/26 10:32:24;;;;;;;38.70;16.45;;;;;;;17.80;13.16;97973.25;5009066;28;20034;-73
2021/12/26 10:34:54;;;;;;;50.13;18.15;;;;;;;18.25;13.05;97968.13;5016691;28;20049;-74
2021/12/26 10:37:33;;;;;;;39.50;13.32;;;;;;;18.67;12.87;97967.28;5016540;28;20105;-73
2021/12/26 10:40:04;;;;;;;43.30;17.67;;;;;;;18.43;12.80;97961.34;5016198;28;20092;-74
2021/12/26 10:42:33;;;;;;;48.58;16.67;;;;;;;18.33;12.92;97969.69;5015696;28;20034;-74
2021/12/26 10:45:10;;;;;;;37.10;14.15;;;;;;;18.59;12.99;97967.31;5016227;28;20038;-74
2021/12/26 10:47:39;;;;;;;32.72;13.90;;;;;;;18.95;12.77;97973.56;5015569;28;20033;-74
2021/12/26 10:50:11;;;;;;;46.30;16.95;;;;;;;18.90;12.96;97964.84;5016218;28;20034;-74
2021/12/26 10:52:39;;;;;;;34.42;13.45;;;;;;;18.68;13.00;97964.09;5015221;28;20092;-73
2021/12/26 10:55:06;;;;;;;44.38;16.15;;;;;;;18.96;12.69;97954.88;5016232;28;20038;-74
2021/12/26 10:57:39;;;;;;;44.58;16.88;;;;;;;18.94;12.87;97963.66;5016121;28;20501;-73
2021/12/26 11:00:14;;;;;;;35.88;15.00;;;;;;;18.82;13.05;97966.06;5015943;28;20498;-74
2021/12/26 11:03:03;;;;;;;42.78;16.30;;;;;;;18.55;13.35;97962.94;5016438;28;20034;-74
2021/12/26 11:05:29;;;;;;;38.75;15.38;;;;;;;18.97;13.15;97967.63;5010450;28;20435;-74
2021/12/26 11:07:56;;;;;;;36.55;15.60;;;;;;;19.31;12.74;97972.25;5014901;28;20092;-74
2021/12/26 11:10:30;;;;;;;40.33;15.98;;;;;;;19.36;12.85;97968.28;5014616;28;20030;-74
2021/12/26 11:12:59;;;;;;;46.15;15.70;;;;;;;18.68;13.35;97968.88;5014894;28;20107;-74
2021/12/26 11:15:38;;;;;;;35.97;14.93;;;;;;;18.34;13.39;97960.94;5014433;28;20088;-74
2021/12/26 11:18:10;;;;;;;36.28;14.90;;;;;;;18.30;13.86;97964.91;5016111;28;20119;-74
2021/12/26 11:20:40;;;;;;;36.47;15.05;;;;;;;18.91;13.34;97961.66;5015682;28;20035;-74
2021/12/26 11:23:18;;;;;;;40.15;15.02;;;;;;;19.36;13.29;97959.13;5004004;28;20042;-74
2021/12/26 11:25:49;;;;;;;35.47;14.45;;;;;;;19.02;13.46;97962.41;4996196;28;20022;-74
2021/12/26 11:28:17;;;;;;;42.92;16.02;;;;;;;19.40;13.38;97960.69;5007740;28;20482;-74